Time,TemperatureF,DewpointF,PressureIn,WindDirection,WindDirectionDegrees,WindSpeedMPH,WindSpeedGustMPH,Humidity,HourlyPrecipIn,Conditions,Clouds,dailyrainin,SolarRadiationWatts/m^2,SoftwareType,DateUTC
2013-01-23 00:03:00,47.9,29.2,30.12,NE,45,1.0,1.0,48,0.00,,,0.00,0,WeatherCatV1.11B39,2013-01-23 07:03:00,
2013-01-23 00:08:00,47.2,28.5,30.12,NE,45,2.0,2.0,48,0.00,,,0.00,0,WeatherCatV1.11B39,2013-01-23 07:08:00,
2013-01-23 00:13:00,47.1,29.4,30.12,NE,45,0.0,1.0,50,0.00,,,0.00,0,WeatherCatV1.11B39,2013-01-23 07:13:00,
2013-01-23 00:18:00,46.9,29.2,30.12,NE,45,2.0,2.0,50,0.00,,,0.00,0,WeatherCatV1.11B39,2013-01-23 07:18:00,
2013-01-23 00:23:00,46.9,29.2,30.12,NE,45,1.0,2.0,50,0.00,,,0.00,0,WeatherCatV1.11B39,2013-01-23 07:23:00,
2013-01-23 00:28:00,46.6,29.0,30.12,NE,45,0.0,0.0,50,0.00,,,0.00,0,WeatherCatV1.11B39,2013-01-23 07:28:00,
2013-01-23 00:33:00,46.4,29.3,30.12,NE,45,0.0,0.0,51,0.00,,,0.00,0,WeatherCatV1.11B39,2013-01-23 07:33:00,
2013-01-23 00:38:00,46.2,29.1,30.12,NE,45,0.0,1.0,51,0.00,,,0.00,0,WeatherCatV1.11B39,2013-01-23 07:38:00,
2013-01-23 00:43:00,45.5,28.9,30.12,NE,45,2.0,2.0,52,0.00,,,0.00,0,WeatherCatV1.11B39,2013-01-23 07:43:00,
2013-01-23 00:48:00,45.3,29.2,30.12,NE,45,0.0,0.0,53,0.00,,,0.00,0,WeatherCatV1.11B39,2013-01-23 07:48:00,
2013-01-23 00:53:00,45.1,29.0,30.12,NE,45,2.0,2.0,53,0.00,,,0.00,0,WeatherCatV1.11B39,2013-01-23 07:53:00,
2013-01-23 00:58:00,45.0,28.9,30.12,NE,45,0.0,2.0,53,0.00,,,0.00,0,WeatherCatV1.11B39,2013-01-23 07:58:00,
2013-01-23 01:03:00,44.6,28.5,30.12,NE,45,0.0,1.0,53,0.00,,,0.00,0,WeatherCatV1.11B39,2013-01-23 08:03:00,
2013-01-23 01:08:00,44.8,29.2,30.12,NE,45,0.0,0.0,54,0.00,,,0.00,0,WeatherCatV1.11B39,2013-01-23 08:08:00,
2013-01-23 01:13:00,44.7,28.6,30.12,NE,45,0.0,1.0,53,0.00,,,0.00,0,WeatherCatV1.11B39,2013-01-23 08:13:00,
2013-01-23 01:18:00,44.8,29.2,30.12,NE,45,0.0,0.0,54,0.00,,,0.00,0,WeatherCatV1.11B39,2013-01-23 08:18:00,
2013-01-23 01:23:00,44.5,28.9,30.13,NE,45,0.0,1.0,54,0.00,,,0.00,0,WeatherCatV1.11B39,2013-01-23 08:23:00,
2013-01-23 01:28:00,44.3,28.7,30.13,NE,45,0.0,0.0,54,0.00,,,0.00,0,WeatherCatV1.11B39,2013-01-23 08:28:00,
2013-01-23 01:33:00,44.3,28.7,30.13,NE,45,0.0,0.0,54,0.00,,,0.00,0,WeatherCatV1.11B39,2013-01-23 08:33:00,
2013-01-23 01:38:00,44.2,28.6,30.13,NE,45,0.0,1.0,54,0.00,,,0.00,0,WeatherCatV1.11B39,2013-01-23 08:38:00,
2013-01-23 01:43:00,44.3,29.2,30.13,NE,45,0.0,0.0,55,0.00,,,0.00,0,WeatherCatV1.11B39,2013-01-23 08:43:00,
2013-01-23 01:48:00,44.4,28.8,30.14,NE,45,0.0,1.0,54,0.00,,,0.00,0,WeatherCatV1.11B39,2013-01-23 08:48:00,
2013-01-23 01:53:00,44.1,29.0,30.14,NE,45,2.0,2.0,55,0.00,,,0.00,0,WeatherCatV1.11B39,2013-01-23 08:53:00,
2013-01-23 01:58:00,44.0,28.9,30.14,NE,45,2.0,3.0,55,0.00,,,0.00,0,WeatherCatV1.11B39,2013-01-23 08:58:00,
2013-01-23 02:03:00,44.1,29.0,30.14,NE,45,0.0,1.0,55,0.00,,,0.00,0,WeatherCatV1.11B39,2013-01-23 09:03:00,
2013-01-23 02:08:00,44.0,28.9,30.14,NE,45,2.0,2.0,55,0.00,,,0.00,0,WeatherCatV1.11B39,2013-01-23 09:08:00,
2013-01-23 02:13:00,44.0,28.9,30.14,NE,45,2.0,2.0,55,0.00,,,0.00,0,WeatherCatV1.11B39,2013-01-23 09:13:00,
2013-01-23 02:18:00,44.1,29.0,30.14,NE,45,1.0,2.0,55,0.00,,,0.00,0,WeatherCatV1.11B39,2013-01-23 09:18:00,
2013-01-23 02:23:00,44.2,29.1,30.14,NE,45,3.0,3.0,55,0.00,,,0.00,0,WeatherCatV1.11B39,2013-01-23 09:23:00,
2013-01-23 02:28:00,44.4,29.3,30.14,NE,44,3.0,3.0,55,0.00,,,0.00,0,WeatherCatV1.11B39,2013-01-23 09:28:00,
2013-01-23 02:33:00,44.7,29.5,30.14,NE,45,1.0,2.0,55,0.00,,,0.00,0,WeatherCatV1.11B39,2013-01-23 09:33:00,
2013-01-23 02:38:00,44.7,29.5,30.14,NE,45,0.0,1.0,55,0.00,,,0.00,0,WeatherCatV1.11B39,2013-01-23 09:38:00,
2013-01-23 02:43:00,44.7,29.1,30.14,NE,45,3.0,3.0,54,0.00,,,0.00,0,WeatherCatV1.11B39,2013-01-23 09:43:00,
2013-01-23 02:48:00,44.5,28.9,30.14,NE,45,0.0,1.0,54,0.00,,,0.00,0,WeatherCatV1.11B39,2013-01-23 09:48:00,
2013-01-23 02:53:00,44.2,29.1,30.14,NE,45,1.0,1.0,55,0.00,,,0.00,0,WeatherCatV1.11B39,2013-01-23 09:53:00,
2013-01-23 02:58:00,44.2,29.5,30.14,NE,45,1.0,2.0,56,0.00,,,0.00,0,WeatherCatV1.11B39,2013-01-23 09:58:00,
2013-01-23 03:03:00,43.9,29.2,30.14,NE,45,1.0,2.0,56,0.00,,,0.00,0,WeatherCatV1.11B39,2013-01-23 10:03:00,
2013-01-23 03:08:00,43.8,29.1,30.14,NE,45,1.0,2.0,56,0.00,,,0.00,0,WeatherCatV1.11B39,2013-01-23 10:08:00,
2013-01-23 03:13:00,44.0,29.3,30.13,NE,45,3.0,3.0,56,0.00,,,0.00,0,WeatherCatV1.11B39,2013-01-23 10:13:00,
2013-01-23 03:18:00,44.1,29.4,30.13,NE,45,1.0,2.0,56,0.00,,,0.00,0,WeatherCatV1.11B39,2013-01-23 10:18:00,
2013-01-23 03:23:00,44.3,29.6,30.13,NE,45,1.0,2.0,56,0.00,,,0.00,0,WeatherCatV1.11B39,2013-01-23 10:23:00,
2013-01-23 03:28:00,44.3,29.2,30.13,NE,45,1.0,2.0,55,0.00,,,0.00,0,WeatherCatV1.11B39,2013-01-23 10:28:00,
2013-01-23 03:33:00,44.1,29.0,30.13,NE,45,3.0,3.0,55,0.00,,,0.00,0,WeatherCatV1.11B39,2013-01-23 10:33:00,
2013-01-23 03:38:00,44.2,29.1,30.13,NE,45,1.0,3.0,55,0.00,,,0.00,0,WeatherCatV1.11B39,2013-01-23 10:38:00,
2013-01-23 03:43:00,43.9,29.2,30.13,NE,45,0.0,0.0,56,0.00,,,0.00,0,WeatherCatV1.11B39,2013-01-23 10:43:00,
2013-01-23 03:48:00,43.8,29.1,30.13,NE,45,0.0,1.0,56,0.00,,,0.00,0,WeatherCatV1.11B39,2013-01-23 10:48:00,
2013-01-23 03:53:00,43.5,29.3,30.13,NE,45,0.0,1.0,57,0.00,,,0.00,0,WeatherCatV1.11B39,2013-01-23 10:53:00,
2013-01-23 03:58:00,43.3,29.1,30.13,NE,45,0.0,0.0,57,0.00,,,0.00,0,WeatherCatV1.11B39,2013-01-23 10:58:00,
2013-01-23 04:03:00,43.0,28.8,30.13,NE,45,0.0,0.0,57,0.00,,,0.00,0,WeatherCatV1.11B39,2013-01-23 11:03:00,
2013-01-23 04:08:00,42.4,28.7,30.12,NE,45,1.0,1.0,58,0.00,,,0.00,0,WeatherCatV1.11B39,2013-01-23 11:08:00,
2013-01-23 04:13:00,42.1,28.8,30.13,NE,45,2.0,2.0,59,0.00,,,0.00,0,WeatherCatV1.11B39,2013-01-23 11:13:00,
2013-01-23 04:18:00,42.3,29.4,30.13,NE,45,0.0,2.0,60,0.00,,,0.00,0,WeatherCatV1.11B39,2013-01-23 11:18:00,
2013-01-23 04:23:00,42.6,29.3,30.12,NE,45,2.0,2.0,59,0.00,,,0.00,0,WeatherCatV1.11B39,2013-01-23 11:23:00,
2013-01-23 04:28:00,43.2,29.4,30.12,NE,45,2.0,3.0,58,0.00,,,0.00,0,WeatherCatV1.11B39,2013-01-23 11:28:00,
2013-01-23 04:33:00,43.4,29.2,30.12,NE,45,1.0,2.0,57,0.00,,,0.00,0,WeatherCatV1.11B39,2013-01-23 11:33:00,
2013-01-23 04:38:00,43.5,28.9,30.12,NE,44,3.0,3.0,56,0.00,,,0.00,0,WeatherCatV1.11B39,2013-01-23 11:38:00,
2013-01-23 04:43:00,43.8,29.1,30.13,NE,42,1.0,2.0,56,0.00,,,0.00,0,WeatherCatV1.11B39,2013-01-23 11:43:00,
2013-01-23 04:48:00,44.7,29.1,30.13,NE,41,2.0,3.0,54,0.00,,,0.00,0,WeatherCatV1.11B39,2013-01-23 11:48:00,
2013-01-23 04:53:00,45.6,29.5,30.13,NNE,21,2.0,4.0,53,0.00,,,0.00,0,WeatherCatV1.11B39,2013-01-23 11:53:00,
2013-01-23 04:58:00,45.8,29.2,30.13,NNE,21,0.0,3.0,52,0.00,,,0.00,0,WeatherCatV1.11B39,2013-01-23 11:58:00,
2013-01-23 05:03:00,45.8,29.2,30.13,NNE,21,1.0,1.0,52,0.00,,,0.00,0,WeatherCatV1.11B39,2013-01-23 12:03:00,
2013-01-23 05:08:00,45.7,29.1,30.13,NNE,21,2.0,2.0,52,0.00,,,0.00,0,WeatherCatV1.11B39,2013-01-23 12:08:00,
2013-01-23 05:13:00,45.6,29.0,30.12,NNE,21,3.0,3.0,52,0.00,,,0.00,0,WeatherCatV1.11B39,2013-01-23 12:13:00,
2013-01-23 05:18:00,45.8,28.7,30.12,NNE,21,2.0,2.0,51,0.00,,,0.00,0,WeatherCatV1.11B39,2013-01-23 12:18:00,
2013-01-23 05:23:00,46.0,28.9,30.12,NNE,21,0.0,0.0,51,0.00,,,0.00,0,WeatherCatV1.11B39,2013-01-23 12:23:00,
2013-01-23 05:28:00,45.4,28.8,30.12,NNE,21,0.0,0.0,52,0.00,,,0.00,0,WeatherCatV1.11B39,2013-01-23 12:28:00,
2013-01-23 05:33:00,44.5,28.9,30.13,NNE,21,0.0,1.0,54,0.00,,,0.00,0,WeatherCatV1.11B39,2013-01-23 12:33:00,
2013-01-23 05:38:00,43.6,29.0,30.13,NNE,21,0.0,1.0,56,0.00,,,0.00,0,WeatherCatV1.11B39,2013-01-23 12:38:00,
2013-01-23 05:43:00,43.1,28.9,30.13,NNE,21,0.0,1.0,57,0.00,,,0.00,0,WeatherCatV1.11B39,2013-01-23 12:43:00,
2013-01-23 05:48:00,42.8,29.1,30.13,NNE,21,0.0,0.0,58,0.00,,,0.00,0,WeatherCatV1.11B39,2013-01-23 12:48:00,
2013-01-23 05:53:00,42.5,28.8,30.13,NNE,21,0.0,0.0,58,0.00,,,0.00,0,WeatherCatV1.11B39,2013-01-23 12:53:00,
2013-01-23 05:58:00,42.2,28.9,30.13,NNE,21,0.0,1.0,59,0.00,,,0.00,0,WeatherCatV1.11B39,2013-01-23 12:58:00,
2013-01-23 06:03:00,41.9,28.6,30.13,NNE,21,0.0,0.0,59,0.00,,,0.00,0,WeatherCatV1.11B39,2013-01-23 13:03:00,
2013-01-23 06:08:00,41.8,28.5,30.13,NNE,21,1.0,2.0,59,0.00,,,0.00,0,WeatherCatV1.11B39,2013-01-23 13:08:00,
2013-01-23 06:13:00,42.0,28.7,30.13,NNE,21,1.0,1.0,59,0.00,,,0.00,0,WeatherCatV1.11B39,2013-01-23 13:13:00,
2013-01-23 06:18:00,41.9,29.0,30.13,NNE,21,0.0,1.0,60,0.00,,,0.00,0,WeatherCatV1.11B39,2013-01-23 13:18:00,
2013-01-23 06:23:00,41.8,28.9,30.13,NNE,21,0.0,0.0,60,0.00,,,0.00,0,WeatherCatV1.11B39,2013-01-23 13:23:00,
2013-01-23 06:28:00,41.5,28.7,30.13,NNE,21,0.0,0.0,60,0.00,,,0.00,0,WeatherCatV1.11B39,2013-01-23 13:28:00,
2013-01-23 06:33:00,41.1,28.7,30.13,NNE,21,0.0,0.0,61,0.00,,,0.00,0,WeatherCatV1.11B39,2013-01-23 13:33:00,
2013-01-23 06:38:00,40.9,28.9,30.13,NNE,21,1.0,2.0,62,0.00,,,0.00,0,WeatherCatV1.11B39,2013-01-23 13:38:00,
2013-01-23 06:43:00,41.1,29.1,30.13,NNE,21,0.0,0.0,62,0.00,,,0.00,0,WeatherCatV1.11B39,2013-01-23 13:43:00,
2013-01-23 06:48:00,41.6,29.2,30.13,NNE,21,2.0,3.0,61,0.00,,,0.00,0,WeatherCatV1.11B39,2013-01-23 13:48:00,
2013-01-23 06:53:00,42.3,29.0,30.13,NNE,21,0.0,2.0,59,0.00,,,0.00,0,WeatherCatV1.11B39,2013-01-23 13:53:00,
2013-01-23 06:58:00,42.0,29.1,30.13,NNE,21,1.0,2.0,60,0.00,,,0.00,0,WeatherCatV1.11B39,2013-01-23 13:58:00,
2013-01-23 07:03:00,42.1,28.8,30.13,NNE,21,1.0,2.0,59,0.00,,,0.00,0,WeatherCatV1.11B39,2013-01-23 14:03:00,
2013-01-23 07:08:00,42.3,29.0,30.14,NNE,21,0.0,0.0,59,0.00,,,0.00,0,WeatherCatV1.11B39,2013-01-23 14:08:00,
2013-01-23 07:13:00,41.9,28.6,30.14,NNE,21,2.0,2.0,59,0.00,,,0.00,5,WeatherCatV1.11B39,2013-01-23 14:13:00,
2013-01-23 07:18:00,41.4,28.6,30.14,NNE,21,0.0,0.0,60,0.00,,,0.00,7,WeatherCatV1.11B39,2013-01-23 14:18:00,
2013-01-23 07:23:00,41.5,29.1,30.15,NNE,20,3.0,3.0,61,0.00,,,0.00,7,WeatherCatV1.11B39,2013-01-23 14:23:00,
2013-01-23 07:28:00,42.6,29.3,30.15,North,9,2.0,3.0,59,0.00,,,0.00,11,WeatherCatV1.11B39,2013-01-23 14:28:00,
2013-01-23 07:33:00,44.7,29.1,30.15,North,9,3.0,3.0,54,0.00,,,0.00,14,WeatherCatV1.11B39,2013-01-23 14:33:00,
2013-01-23 07:38:00,45.8,29.2,30.15,NNW,330,1.0,3.0,52,0.00,,,0.00,19,WeatherCatV1.11B39,2013-01-23 14:38:00,
2013-01-23 07:43:00,46.4,29.3,30.15,NNW,330,1.0,2.0,51,0.00,,,0.00,26,WeatherCatV1.11B39,2013-01-23 14:43:00,
2013-01-23 07:48:00,46.3,29.2,30.15,NNW,330,0.0,1.0,51,0.00,,,0.00,33,WeatherCatV1.11B39,2013-01-23 14:48:00,
2013-01-23 07:53:00,45.7,29.1,30.15,NNW,330,1.0,1.0,52,0.00,,,0.00,37,WeatherCatV1.11B39,2013-01-23 14:53:00,
2013-01-23 07:58:00,45.2,29.1,30.16,NNW,330,0.0,1.0,53,0.00,,,0.00,51,WeatherCatV1.11B39,2013-01-23 14:58:00,
2013-01-23 08:03:00,45.8,29.2,30.15,NNW,330,2.0,2.0,52,0.00,,,0.00,62,WeatherCatV1.11B39,2013-01-23 15:03:00,
2013-01-23 08:08:00,46.6,29.5,30.16,NNW,330,0.0,2.0,51,0.00,,,0.00,83,WeatherCatV1.11B39,2013-01-23 15:08:00,
2013-01-23 08:13:00,48.1,29.9,30.16,NNW,330,2.0,2.0,49,0.00,,,0.00,114,WeatherCatV1.11B39,2013-01-23 15:13:00,
2013-01-23 08:18:00,49.3,29.9,30.16,NNW,330,2.0,3.0,47,0.00,,,0.00,153,WeatherCatV1.11B39,2013-01-23 15:18:00,
2013-01-23 08:23:00,50.4,29.9,30.16,NNW,329,1.0,3.0,45,0.00,,,0.00,130,WeatherCatV1.11B39,2013-01-23 15:23:00,
2013-01-23 08:28:00,51.2,30.0,30.17,NW,324,3.0,4.0,44,0.00,,,0.00,209,WeatherCatV1.11B39,2013-01-23 15:28:00,
2013-01-23 08:33:00,52.2,29.8,30.17,NW,321,2.0,4.0,42,0.00,,,0.00,216,WeatherCatV1.11B39,2013-01-23 15:33:00,
2013-01-23 08:38:00,53.2,30.1,30.17,WNW,284,2.0,4.0,41,0.00,,,0.00,209,WeatherCatV1.11B39,2013-01-23 15:38:00,
2013-01-23 08:43:00,54.1,30.3,30.17,WNW,284,5.0,5.0,40,0.00,,,0.00,232,WeatherCatV1.11B39,2013-01-23 15:43:00,
2013-01-23 08:48:00,54.7,30.2,30.17,WNW,291,4.0,5.0,39,0.00,,,0.00,258,WeatherCatV1.11B39,2013-01-23 15:48:00,
2013-01-23 08:53:00,55.3,30.1,30.18,WNW,284,3.0,4.0,38,0.00,,,0.00,251,WeatherCatV1.11B39,2013-01-23 15:53:00,
2013-01-23 08:58:00,55.9,30.0,30.17,WNW,284,4.0,5.0,37,0.00,,,0.00,197,WeatherCatV1.11B39,2013-01-23 15:58:00,
2013-01-23 09:03:00,56.2,29.6,30.17,WNW,284,1.0,3.0,36,0.00,,,0.00,209,WeatherCatV1.11B39,2013-01-23 16:03:00,
2013-01-23 09:08:00,56.5,29.9,30.17,WNW,284,2.0,3.0,36,0.00,,,0.00,188,WeatherCatV1.11B39,2013-01-23 16:08:00,
2013-01-23 09:13:00,56.9,30.2,30.17,WNW,284,0.0,1.0,36,0.00,,,0.00,225,WeatherCatV1.11B39,2013-01-23 16:13:00,
2013-01-23 09:18:00,57.3,30.6,30.18,WNW,284,1.0,2.0,36,0.00,,,0.00,318,WeatherCatV1.11B39,2013-01-23 16:18:00,
2013-01-23 09:23:00,58.0,30.5,30.18,WNW,284,0.0,2.0,35,0.00,,,0.00,364,WeatherCatV1.11B39,2013-01-23 16:23:00,
2013-01-23 09:28:00,58.7,30.4,30.18,WNW,284,0.0,3.0,34,0.00,,,0.00,408,WeatherCatV1.11B39,2013-01-23 16:28:00,
2013-01-23 09:33:00,59.5,30.4,30.18,WNW,284,1.0,1.0,33,0.00,,,0.00,279,WeatherCatV1.11B39,2013-01-23 16:33:00,
2013-01-23 09:38:00,60.0,30.1,30.18,WNW,284,0.0,3.0,32,0.00,,,0.00,350,WeatherCatV1.11B39,2013-01-23 16:38:00,
2013-01-23 09:43:00,60.4,30.4,30.18,WNW,284,0.0,1.0,32,0.00,,,0.00,255,WeatherCatV1.11B39,2013-01-23 16:43:00,
2013-01-23 09:48:00,60.7,30.7,30.18,WNW,284,0.0,0.0,32,0.00,,,0.00,230,WeatherCatV1.11B39,2013-01-23 16:48:00,
2013-01-23 09:53:00,61.0,30.9,30.18,WNW,284,0.0,1.0,32,0.00,,,0.00,338,WeatherCatV1.11B39,2013-01-23 16:53:00,
2013-01-23 09:58:00,62.0,31.0,30.18,WNW,284,0.0,3.0,31,0.00,,,0.00,323,WeatherCatV1.11B39,2013-01-23 16:58:00,
2013-01-23 10:03:00,62.6,30.7,30.18,WNW,282,2.0,3.0,30,0.00,,,0.00,274,WeatherCatV1.11B39,2013-01-23 17:03:00,
2013-01-23 10:08:00,62.6,30.7,30.18,WNW,282,0.0,4.0,30,0.00,,,0.00,346,WeatherCatV1.11B39,2013-01-23 17:08:00,
2013-01-23 10:13:00,62.9,31.0,30.18,West,276,1.0,4.0,30,0.00,,,0.00,415,WeatherCatV1.11B39,2013-01-23 17:13:00,
2013-01-23 10:18:00,63.3,30.5,30.18,West,272,3.0,4.0,29,0.00,,,0.00,350,WeatherCatV1.11B39,2013-01-23 17:18:00,
2013-01-23 10:23:00,63.1,30.3,30.18,West,272,3.0,3.0,29,0.00,,,0.00,279,WeatherCatV1.11B39,2013-01-23 17:23:00,
2013-01-23 10:28:00,63.4,30.6,30.18,West,273,2.0,3.0,29,0.00,,,0.00,388,WeatherCatV1.11B39,2013-01-23 17:28:00,
2013-01-23 10:33:00,63.8,30.9,30.18,West,273,4.0,4.0,29,0.00,,,0.00,438,WeatherCatV1.11B39,2013-01-23 17:33:00,
2013-01-23 10:38:00,64.0,30.2,30.18,West,259,4.0,4.0,28,0.00,,,0.00,652,WeatherCatV1.11B39,2013-01-23 17:38:00,
2013-01-23 10:43:00,65.5,31.5,30.18,West,263,5.0,6.0,28,0.00,,,0.00,529,WeatherCatV1.11B39,2013-01-23 17:43:00,
2013-01-23 10:48:00,65.5,30.6,30.18,West,264,2.0,4.0,27,0.00,,,0.00,315,WeatherCatV1.11B39,2013-01-23 17:48:00,
2013-01-23 10:53:00,65.5,30.6,30.18,West,259,3.0,5.0,27,0.00,,,0.00,540,WeatherCatV1.11B39,2013-01-23 17:53:00,
2013-01-23 10:58:00,66.2,31.2,30.18,West,272,3.0,4.0,27,0.00,,,0.00,564,WeatherCatV1.11B39,2013-01-23 17:58:00,
2013-01-23 11:03:00,67.2,31.2,30.18,WNW,301,2.0,3.0,26,0.00,,,0.00,520,WeatherCatV1.11B39,2013-01-23 18:03:00,
2013-01-23 11:08:00,67.3,30.3,30.18,WNW,301,1.0,3.0,25,0.00,,,0.00,320,WeatherCatV1.11B39,2013-01-23 18:08:00,
2013-01-23 11:13:00,67.2,30.2,30.17,WNW,301,2.0,2.0,25,0.00,,,0.00,206,WeatherCatV1.11B39,2013-01-23 18:13:00,
2013-01-23 11:18:00,67.4,31.3,30.17,WNW,301,2.0,2.0,26,0.00,,,0.00,206,WeatherCatV1.11B39,2013-01-23 18:18:00,
2013-01-23 11:23:00,67.6,30.5,30.17,WNW,299,2.0,2.0,25,0.00,,,0.00,218,WeatherCatV1.11B39,2013-01-23 18:23:00,
2013-01-23 11:28:00,67.7,30.6,30.17,West,269,2.0,3.0,25,0.00,,,0.00,294,WeatherCatV1.11B39,2013-01-23 18:28:00,
2013-01-23 11:33:00,67.7,30.6,30.17,West,267,1.0,3.0,25,0.00,,,0.00,339,WeatherCatV1.11B39,2013-01-23 18:33:00,
2013-01-23 11:38:00,68.0,30.9,30.17,West,268,0.0,2.0,25,0.00,,,0.00,294,WeatherCatV1.11B39,2013-01-23 18:38:00,
2013-01-23 11:43:00,68.5,31.3,30.16,West,269,3.0,3.0,25,0.00,,,0.00,346,WeatherCatV1.11B39,2013-01-23 18:43:00,
2013-01-23 11:48:00,68.8,30.5,30.16,West,269,0.0,2.0,24,0.00,,,0.00,362,WeatherCatV1.11B39,2013-01-23 18:48:00,
2013-01-23 11:53:00,69.3,31.0,30.16,West,269,1.0,3.0,24,0.00,,,0.00,512,WeatherCatV1.11B39,2013-01-23 18:53:00,
2013-01-23 11:58:00,70.0,31.5,30.15,West,269,0.0,2.0,24,0.00,,,0.00,392,WeatherCatV1.11B39,2013-01-23 18:58:00,
2013-01-23 12:03:00,70.9,31.2,30.15,West,269,2.0,2.0,23,0.00,,,0.00,362,WeatherCatV1.11B39,2013-01-23 19:03:00,
2013-01-23 12:08:00,71.5,32.8,30.14,West,269,0.0,0.0,24,0.00,,,0.00,417,WeatherCatV1.11B39,2013-01-23 19:08:00,
2013-01-23 12:13:00,71.9,32.1,30.14,West,269,0.0,1.0,23,0.00,,,0.00,529,WeatherCatV1.11B39,2013-01-23 19:13:00,
2013-01-23 12:18:00,72.7,32.8,30.14,West,269,0.0,1.0,23,0.00,,,0.00,387,WeatherCatV1.11B39,2013-01-23 19:18:00,
2013-01-23 12:23:00,73.5,32.3,30.14,West,269,0.0,1.0,22,0.00,,,0.00,425,WeatherCatV1.11B39,2013-01-23 19:23:00,
2013-01-23 12:28:00,74.1,31.7,30.13,West,269,0.0,1.0,21,0.00,,,0.00,373,WeatherCatV1.11B39,2013-01-23 19:28:00,
2013-01-23 12:33:00,74.1,31.7,30.13,West,269,1.0,1.0,21,0.00,,,0.00,390,WeatherCatV1.11B39,2013-01-23 19:33:00,
2013-01-23 12:38:00,74.9,32.3,30.13,West,269,1.0,2.0,21,0.00,,,0.00,536,WeatherCatV1.11B39,2013-01-23 19:38:00,
2013-01-23 12:43:00,75.9,31.9,30.12,West,269,2.0,2.0,20,0.00,,,0.00,650,WeatherCatV1.11B39,2013-01-23 19:43:00,
2013-01-23 12:48:00,77.1,31.7,30.12,West,270,0.0,2.0,19,0.00,,,0.00,775,WeatherCatV1.11B39,2013-01-23 19:48:00,
2013-01-23 12:53:00,78.5,32.8,30.11,North,353,2.0,4.0,19,0.00,,,0.00,735,WeatherCatV1.11B39,2013-01-23 19:53:00,
2013-01-23 12:58:00,79.8,32.5,30.11,NNE,23,2.0,3.0,18,0.00,,,0.00,431,WeatherCatV1.11B39,2013-01-23 19:58:00,
2013-01-23 13:03:00,79.1,31.9,30.11,NNE,23,0.0,1.0,18,0.00,,,0.00,325,WeatherCatV1.11B39,2013-01-23 20:03:00,
2013-01-23 13:08:00,78.4,32.7,30.11,NNE,22,0.0,2.0,19,0.00,,,0.00,336,WeatherCatV1.11B39,2013-01-23 20:08:00,
2013-01-23 13:13:00,78.4,31.4,30.10,NNE,24,0.0,2.0,18,0.00,,,0.00,445,WeatherCatV1.11B39,2013-01-23 20:13:00,
2013-01-23 13:18:00,77.8,32.2,30.10,NNE,18,3.0,7.0,19,0.00,,,0.00,320,WeatherCatV1.11B39,2013-01-23 20:18:00,
2013-01-23 13:23:00,78.0,32.4,30.10,ENE,67,1.0,5.0,19,0.00,,,0.00,385,WeatherCatV1.11B39,2013-01-23 20:23:00,
2013-01-23 13:28:00,77.7,32.1,30.09,ENE,64,0.0,1.0,19,0.00,,,0.00,392,WeatherCatV1.11B39,2013-01-23 20:28:00,
2013-01-23 13:33:00,78.3,31.3,30.09,North,353,1.0,3.0,18,0.00,,,0.00,327,WeatherCatV1.11B39,2013-01-23 20:33:00,
2013-01-23 13:38:00,78.9,33.1,30.09,North,353,2.0,4.0,19,0.00,,,0.00,390,WeatherCatV1.11B39,2013-01-23 20:38:00,
2013-01-23 13:43:00,79.3,32.1,30.09,WNW,297,5.0,6.0,18,0.00,,,0.00,408,WeatherCatV1.11B39,2013-01-23 20:43:00,
2013-01-23 13:48:00,79.4,32.2,30.08,WNW,285,3.0,6.0,18,0.00,,,0.00,575,WeatherCatV1.11B39,2013-01-23 20:48:00,
2013-01-23 13:53:00,78.7,31.6,30.08,WNW,285,2.0,3.0,18,0.00,,,0.00,413,WeatherCatV1.11B39,2013-01-23 20:53:00,
2013-01-23 13:58:00,79.7,32.4,30.08,West,276,2.0,4.0,18,0.00,,,0.00,788,WeatherCatV1.11B39,2013-01-23 20:58:00,
2013-01-23 14:03:00,80.0,32.7,30.08,NW,307,2.0,5.0,18,0.00,,,0.00,700,WeatherCatV1.11B39,2013-01-23 21:03:00,
2013-01-23 14:08:00,80.2,32.8,30.08,WNW,285,2.0,6.0,18,0.00,,,0.00,631,WeatherCatV1.11B39,2013-01-23 21:08:00,
2013-01-23 14:13:00,79.6,32.3,30.08,WNW,283,5.0,8.0,18,0.00,,,0.00,227,WeatherCatV1.11B39,2013-01-23 21:13:00,
2013-01-23 14:18:00,78.9,31.8,30.08,NW,321,2.0,5.0,18,0.00,,,0.00,248,WeatherCatV1.11B39,2013-01-23 21:18:00,
2013-01-23 14:23:00,78.7,31.6,30.08,NW,326,2.0,4.0,18,0.00,,,0.00,323,WeatherCatV1.11B39,2013-01-23 21:23:00,
2013-01-23 14:29:00,79.3,32.1,30.08,NW,325,1.0,2.0,18,0.00,,,0.00,555,WeatherCatV1.11B39,2013-01-23 21:29:00,
2013-01-23 14:34:00,80.2,32.8,30.07,WNW,297,5.0,6.0,18,0.00,,,0.00,515,WeatherCatV1.11B39,2013-01-23 21:34:00,
2013-01-23 14:39:00,80.1,32.8,30.07,SW,223,2.0,5.0,18,0.00,,,0.00,306,WeatherCatV1.11B39,2013-01-23 21:39:00,
2013-01-23 14:44:00,79.7,32.4,30.07,SW,228,0.0,8.0,18,0.00,,,0.00,237,WeatherCatV1.11B39,2013-01-23 21:44:00,
2013-01-23 14:49:00,79.1,31.9,30.07,SW,230,2.0,6.0,18,0.00,,,0.00,313,WeatherCatV1.11B39,2013-01-23 21:49:00,
2013-01-23 14:54:00,80.2,32.8,30.07,SSW,213,4.0,5.0,18,0.00,,,0.00,700,WeatherCatV1.11B39,2013-01-23 21:54:00,
2013-01-23 14:59:00,80.2,32.8,30.07,SW,236,4.0,6.0,18,0.00,,,0.00,633,WeatherCatV1.11B39,2013-01-23 21:59:00,
2013-01-23 15:04:00,80.9,33.4,30.07,South,170,0.0,3.0,18,0.00,,,0.00,353,WeatherCatV1.11B39,2013-01-23 22:04:00,
2013-01-23 15:09:00,79.9,32.6,30.07,South,170,1.0,3.0,18,0.00,,,0.00,221,WeatherCatV1.11B39,2013-01-23 22:09:00,
2013-01-23 15:14:00,80.4,33.0,30.07,NW,326,3.0,5.0,18,0.00,,,0.00,306,WeatherCatV1.11B39,2013-01-23 22:14:00,
2013-01-23 15:19:00,79.7,32.4,30.07,WSW,245,1.0,3.0,18,0.00,,,0.00,172,WeatherCatV1.11B39,2013-01-23 22:19:00,
2013-01-23 15:24:00,79.3,32.1,30.07,West,276,0.0,2.0,18,0.00,,,0.00,503,WeatherCatV1.11B39,2013-01-23 22:24:00,
2013-01-23 15:29:00,79.8,32.5,30.07,WNW,282,3.0,3.0,18,0.00,,,0.00,427,WeatherCatV1.11B39,2013-01-23 22:29:00,
2013-01-23 15:34:00,80.0,32.7,30.06,WNW,288,0.0,7.0,18,0.00,,,0.00,485,WeatherCatV1.11B39,2013-01-23 22:34:00,
2013-01-23 15:39:00,80.1,32.8,30.06,WSW,246,2.0,3.0,18,0.00,,,0.00,432,WeatherCatV1.11B39,2013-01-23 22:39:00,
2013-01-23 15:44:00,80.1,32.8,30.06,WSW,250,4.0,6.0,18,0.00,,,0.00,401,WeatherCatV1.11B39,2013-01-23 22:44:00,
2013-01-23 15:49:00,79.9,32.6,30.06,WSW,252,4.0,7.0,18,0.00,,,0.00,355,WeatherCatV1.11B39,2013-01-23 22:49:00,
2013-01-23 15:54:00,80.2,32.8,30.06,SW,220,0.0,7.0,18,0.00,,,0.00,130,WeatherCatV1.11B39,2013-01-23 22:54:00,
2013-01-23 15:59:00,79.1,31.9,30.06,NW,319,2.0,3.0,18,0.00,,,0.00,306,WeatherCatV1.11B39,2013-01-23 22:59:00,
2013-01-23 16:04:00,79.2,32.0,30.06,NW,309,3.0,4.0,18,0.00,,,0.00,336,WeatherCatV1.11B39,2013-01-23 23:04:00,
2013-01-23 16:09:00,79.6,32.3,30.06,SW,217,2.0,4.0,18,0.00,,,0.00,320,WeatherCatV1.11B39,2013-01-23 23:09:00,
2013-01-23 16:14:00,78.9,31.8,30.05,SW,219,1.0,2.0,18,0.00,,,0.00,304,WeatherCatV1.11B39,2013-01-23 23:14:00,
2013-01-23 16:19:00,79.5,32.3,30.05,WSW,240,3.0,4.0,18,0.00,,,0.00,281,WeatherCatV1.11B39,2013-01-23 23:19:00,
2013-01-23 16:24:00,79.4,32.2,30.05,WSW,241,2.0,3.0,18,0.00,,,0.00,260,WeatherCatV1.11B39,2013-01-23 23:24:00,
2013-01-23 16:29:00,79.5,32.3,30.05,WNW,292,2.0,3.0,18,0.00,,,0.00,237,WeatherCatV1.11B39,2013-01-23 23:29:00,
2013-01-23 16:34:00,79.3,32.1,30.05,NNW,336,3.0,4.0,18,0.00,,,0.00,206,WeatherCatV1.11B39,2013-01-23 23:34:00,
2013-01-23 16:39:00,79.0,31.9,30.05,NNE,26,1.0,3.0,18,0.00,,,0.00,165,WeatherCatV1.11B39,2013-01-23 23:39:00,
2013-01-23 16:44:00,78.8,33.0,30.05,SW,222,0.0,4.0,19,0.00,,,0.00,83,WeatherCatV1.11B39,2013-01-23 23:44:00,
2013-01-23 16:49:00,78.3,32.6,30.06,South,188,2.0,3.0,19,0.00,,,0.00,69,WeatherCatV1.11B39,2013-01-23 23:49:00,
2013-01-23 16:54:00,78.3,32.6,30.05,South,189,1.0,3.0,19,0.00,,,0.00,58,WeatherCatV1.11B39,2013-01-23 23:54:00,
2013-01-23 16:59:00,78.3,32.6,30.05,South,189,2.0,4.0,19,0.00,,,0.00,54,WeatherCatV1.11B39,2013-01-23 23:59:00,
2013-01-23 17:04:00,78.1,32.5,30.06,WSW,238,2.0,3.0,19,0.00,,,0.00,39,WeatherCatV1.11B39,2013-01-24 00:04:00,
2013-01-23 17:09:00,77.9,32.3,30.06,WSW,238,0.0,0.0,19,0.00,,,0.00,49,WeatherCatV1.11B39,2013-01-24 00:09:00,
2013-01-23 17:14:00,77.6,32.1,30.06,WSW,238,0.0,1.0,19,0.00,,,0.00,37,WeatherCatV1.11B39,2013-01-24 00:14:00,
2013-01-23 17:19:00,77.1,32.9,30.06,WSW,238,2.0,3.0,20,0.00,,,0.00,26,WeatherCatV1.11B39,2013-01-24 00:19:00,
2013-01-23 17:24:00,76.6,32.5,30.06,WSW,238,1.0,1.0,20,0.00,,,0.00,21,WeatherCatV1.11B39,2013-01-24 00:24:00,
2013-01-23 17:29:00,76.2,32.2,30.06,WSW,238,0.0,0.0,20,0.00,,,0.00,18,WeatherCatV1.11B39,2013-01-24 00:29:00,
2013-01-23 17:34:00,75.4,32.7,30.06,WSW,238,0.0,1.0,21,0.00,,,0.00,14,WeatherCatV1.11B39,2013-01-24 00:34:00,
2013-01-23 17:39:00,74.4,33.1,30.06,WSW,238,0.0,0.0,22,0.00,,,0.00,11,WeatherCatV1.11B39,2013-01-24 00:39:00,
2013-01-23 17:44:00,73.0,33.0,30.06,WSW,238,0.0,1.0,23,0.00,,,0.00,7,WeatherCatV1.11B39,2013-01-24 00:44:00,
2013-01-23 17:49:00,71.4,32.7,30.06,WSW,238,0.0,0.0,24,0.00,,,0.00,0,WeatherCatV1.11B39,2013-01-24 00:49:00,
2013-01-23 17:54:00,70.1,32.6,30.07,WSW,238,0.0,0.0,25,0.00,,,0.00,0,WeatherCatV1.11B39,2013-01-24 00:54:00,
2013-01-23 17:59:00,69.0,32.7,30.07,WSW,238,0.0,0.0,26,0.00,,,0.00,0,WeatherCatV1.11B39,2013-01-24 00:59:00,
2013-01-23 18:04:00,67.9,32.7,30.06,WSW,238,0.0,1.0,27,0.00,,,0.00,0,WeatherCatV1.11B39,2013-01-24 01:04:00,
2013-01-23 18:09:00,67.0,32.8,30.07,WSW,238,0.0,2.0,28,0.00,,,0.00,0,WeatherCatV1.11B39,2013-01-24 01:09:00,
2013-01-23 18:14:00,66.3,33.1,30.07,WSW,238,3.0,3.0,29,0.00,,,0.00,0,WeatherCatV1.11B39,2013-01-24 01:14:00,
2013-01-23 18:19:00,65.8,33.5,30.07,WSW,238,3.0,3.0,30,0.00,,,0.00,0,WeatherCatV1.11B39,2013-01-24 01:19:00,
2013-01-23 18:24:00,65.8,32.7,30.07,WSW,238,1.0,2.0,29,0.00,,,0.00,0,WeatherCatV1.11B39,2013-01-24 01:24:00,
2013-01-23 18:29:00,65.9,32.7,30.07,SW,235,0.0,1.0,29,0.00,,,0.00,0,WeatherCatV1.11B39,2013-01-24 01:29:00,
2013-01-23 18:34:00,65.7,32.6,30.07,South,169,1.0,2.0,29,0.00,,,0.00,0,WeatherCatV1.11B39,2013-01-24 01:34:00,
2013-01-23 18:39:00,66.0,32.8,30.07,SSE,149,1.0,3.0,29,0.00,,,0.00,0,WeatherCatV1.11B39,2013-01-24 01:39:00,
2013-01-23 18:44:00,66.2,33.0,30.07,ESE,122,1.0,2.0,29,0.00,,,0.00,0,WeatherCatV1.11B39,2013-01-24 01:44:00,
2013-01-23 18:49:00,66.6,32.5,30.08,ESE,122,1.0,2.0,28,0.00,,,0.00,0,WeatherCatV1.11B39,2013-01-24 01:49:00,
2013-01-23 18:54:00,66.6,32.5,30.08,ESE,122,0.0,1.0,28,0.00,,,0.00,0,WeatherCatV1.11B39,2013-01-24 01:54:00,
2013-01-23 18:59:00,65.8,32.7,30.08,ESE,122,1.0,1.0,29,0.00,,,0.00,0,WeatherCatV1.11B39,2013-01-24 01:59:00,
2013-01-23 19:04:00,65.3,32.2,30.08,ESE,122,0.0,1.0,29,0.00,,,0.00,0,WeatherCatV1.11B39,2013-01-24 02:04:00,
2013-01-23 19:09:00,64.9,32.7,30.08,ESE,122,1.0,2.0,30,0.00,,,0.00,0,WeatherCatV1.11B39,2013-01-24 02:09:00,
2013-01-23 19:14:00,63.7,32.5,30.08,ESE,122,1.0,1.0,31,0.00,,,0.00,0,WeatherCatV1.11B39,2013-01-24 02:14:00,
2013-01-23 19:19:00,63.5,32.3,30.07,ESE,121,1.0,3.0,31,0.00,,,0.00,0,WeatherCatV1.11B39,2013-01-24 02:19:00,
2013-01-23 19:24:00,64.7,32.5,30.07,East,101,2.0,3.0,30,0.00,,,0.00,0,WeatherCatV1.11B39,2013-01-24 02:24:00,
2013-01-23 19:29:00,65.4,32.3,30.07,East,86,1.0,5.0,29,0.00,,,0.00,0,WeatherCatV1.11B39,2013-01-24 02:29:00,
2013-01-23 19:34:00,66.1,32.9,30.07,East,89,2.0,6.0,29,0.00,,,0.00,0,WeatherCatV1.11B39,2013-01-24 02:34:00,
2013-01-23 19:39:00,66.4,32.3,30.07,ESE,107,2.0,8.0,28,0.00,,,0.00,0,WeatherCatV1.11B39,2013-01-24 02:39:00,
2013-01-23 19:44:00,67.4,32.3,30.07,ESE,112,3.0,6.0,27,0.00,,,0.00,0,WeatherCatV1.11B39,2013-01-24 02:44:00,
2013-01-23 19:49:00,68.7,32.4,30.07,East,84,1.0,5.0,26,0.00,,,0.00,0,WeatherCatV1.11B39,2013-01-24 02:49:00,
2013-01-23 19:54:00,68.6,32.3,30.07,ESE,105,4.0,4.0,26,0.00,,,0.00,0,WeatherCatV1.11B39,2013-01-24 02:54:00,
2013-01-23 19:59:00,68.0,31.8,30.08,ESE,114,4.0,5.0,26,0.00,,,0.00,0,WeatherCatV1.11B39,2013-01-24 02:59:00,
2013-01-23 20:04:00,67.6,31.5,30.08,East,95,3.0,5.0,26,0.00,,,0.00,0,WeatherCatV1.11B39,2013-01-24 03:04:00,
2013-01-23 20:09:00,67.3,31.2,30.08,East,93,3.0,4.0,26,0.00,,,0.00,0,WeatherCatV1.11B39,2013-01-24 03:09:00,
2013-01-23 20:14:00,67.0,31.0,30.08,East,95,2.0,5.0,26,0.00,,,0.00,0,WeatherCatV1.11B39,2013-01-24 03:14:00,
2013-01-23 20:19:00,66.8,30.8,30.08,East,99,3.0,4.0,26,0.00,,,0.00,0,WeatherCatV1.11B39,2013-01-24 03:19:00,
2013-01-23 20:24:00,66.5,31.5,30.08,East,95,2.0,4.0,27,0.00,,,0.00,0,WeatherCatV1.11B39,2013-01-24 03:24:00,
2013-01-23 20:29:00,66.6,31.6,30.08,East,92,4.0,4.0,27,0.00,,,0.00,0,WeatherCatV1.11B39,2013-01-24 03:29:00,
2013-01-23 20:34:00,66.3,31.3,30.08,East,89,3.0,5.0,27,0.00,,,0.00,0,WeatherCatV1.11B39,2013-01-24 03:34:00,
2013-01-23 20:39:00,66.3,31.3,30.08,East,89,3.0,6.0,27,0.00,,,0.00,0,WeatherCatV1.11B39,2013-01-24 03:39:00,
2013-01-23 20:44:00,65.8,30.9,30.08,East,94,0.0,2.0,27,0.00,,,0.00,0,WeatherCatV1.11B39,2013-01-24 03:44:00,
2013-01-23 20:49:00,65.2,30.4,30.09,East,94,0.0,1.0,27,0.00,,,0.00,0,WeatherCatV1.11B39,2013-01-24 03:49:00,
2013-01-23 20:54:00,64.1,31.2,30.09,NW,307,0.0,3.0,29,0.00,,,0.00,0,WeatherCatV1.11B39,2013-01-24 03:54:00,
2013-01-23 20:59:00,63.0,31.1,30.10,WSW,256,1.0,5.0,30,0.00,,,0.00,0,WeatherCatV1.11B39,2013-01-24 03:59:00,
2013-01-23 21:04:00,61.9,31.7,30.10,NW,321,4.0,4.0,32,0.00,,,0.00,0,WeatherCatV1.11B39,2013-01-24 04:04:00,
2013-01-23 21:09:00,60.6,32.1,30.10,NNW,332,1.0,3.0,34,0.00,,,0.00,0,WeatherCatV1.11B39,2013-01-24 04:09:00,
2013-01-23 21:14:00,60.0,32.3,30.10,NNW,333,1.0,3.0,35,0.00,,,0.00,0,WeatherCatV1.11B39,2013-01-24 04:14:00,
2013-01-23 21:19:00,59.6,31.9,30.10,NNW,333,0.0,1.0,35,0.00,,,0.00,0,WeatherCatV1.11B39,2013-01-24 04:19:00,
2013-01-23 21:24:00,59.0,32.1,30.10,NNW,333,2.0,2.0,36,0.00,,,0.00,0,WeatherCatV1.11B39,2013-01-24 04:24:00,
2013-01-23 21:29:00,58.6,32.4,30.11,NNW,333,0.0,1.0,37,0.00,,,0.00,0,WeatherCatV1.11B39,2013-01-24 04:29:00,
2013-01-23 21:34:00,58.2,32.1,30.10,NNW,333,0.0,1.0,37,0.00,,,0.00,0,WeatherCatV1.11B39,2013-01-24 04:34:00,
2013-01-23 21:39:00,57.4,32.0,30.10,NNW,333,0.0,2.0,38,0.00,,,0.00,0,WeatherCatV1.11B39,2013-01-24 04:39:00,
2013-01-23 21:44:00,57.2,31.8,30.11,NNW,333,0.0,0.0,38,0.00,,,0.00,0,WeatherCatV1.11B39,2013-01-24 04:44:00,
2013-01-23 21:49:00,57.0,32.3,30.11,NNW,333,1.0,1.0,39,0.00,,,0.00,0,WeatherCatV1.11B39,2013-01-24 04:49:00,
2013-01-23 21:54:00,56.4,31.8,30.11,NNW,333,0.0,2.0,39,0.00,,,0.00,0,WeatherCatV1.11B39,2013-01-24 04:54:00,
2013-01-23 21:59:00,55.7,32.4,30.11,NNW,333,0.0,2.0,41,0.00,,,0.00,0,WeatherCatV1.11B39,2013-01-24 04:59:00,
2013-01-23 22:00:00,55.7,32.4,30.11,NNW,333,1.0,2.0,41,0.00,,,0.00,0,WeatherCatV1.11B39,2013-01-24 05:00:00,
2013-01-23 22:01:00,55.6,32.3,30.11,NNW,333,1.0,2.0,41,0.00,,,0.00,0,WeatherCatV1.11B39,2013-01-24 05:01:00,
2013-01-23 22:06:00,55.1,31.8,30.11,NNW,333,2.0,2.0,41,0.00,,,0.00,0,WeatherCatV1.11B39,2013-01-24 05:06:00,
2013-01-23 22:11:00,55.0,32.3,30.11,NNW,333,2.0,2.0,42,0.00,,,0.00,0,WeatherCatV1.11B39,2013-01-24 05:11:00,
2013-01-23 22:16:00,54.6,32.0,30.11,NNW,333,0.0,2.0,42,0.00,,,0.00,0,WeatherCatV1.11B39,2013-01-24 05:16:00,
2013-01-23 22:21:00,54.4,32.4,30.11,NNW,334,1.0,2.0,43,0.00,,,0.00,0,WeatherCatV1.11B39,2013-01-24 05:21:00,
2013-01-23 22:26:00,54.3,32.3,30.11,NNW,334,2.0,2.0,43,0.00,,,0.00,0,WeatherCatV1.11B39,2013-01-24 05:26:00,
2013-01-23 22:31:00,54.0,32.0,30.11,NNW,334,0.0,0.0,43,0.00,,,0.00,0,WeatherCatV1.11B39,2013-01-24 05:31:00,
2013-01-23 22:36:00,53.6,32.2,30.11,NNW,334,2.0,2.0,44,0.00,,,0.00,0,WeatherCatV1.11B39,2013-01-24 05:36:00,
2013-01-23 22:41:00,53.8,32.4,30.12,NNW,334,0.0,3.0,44,0.00,,,0.00,0,WeatherCatV1.11B39,2013-01-24 05:41:00,
2013-01-23 22:46:00,53.7,32.3,30.12,NNW,334,0.0,0.0,44,0.00,,,0.00,0,WeatherCatV1.11B39,2013-01-24 05:46:00,
2013-01-23 22:51:00,53.5,32.1,30.12,SSW,205,0.0,1.0,44,0.00,,,0.00,0,WeatherCatV1.11B39,2013-01-24 05:51:00,
2013-01-23 22:56:00,53.5,32.1,30.12,SSW,204,1.0,2.0,44,0.00,,,0.00,0,WeatherCatV1.11B39,2013-01-24 05:56:00,
2013-01-23 23:01:00,53.1,32.3,30.13,SSW,205,0.0,2.0,45,0.00,,,0.00,0,WeatherCatV1.11B39,2013-01-24 06:01:00,
2013-01-23 23:06:00,52.7,32.0,30.13,SSW,205,0.0,1.0,45,0.00,,,0.00,0,WeatherCatV1.11B39,2013-01-24 06:06:00,
2013-01-23 23:11:00,52.7,32.0,30.13,SSW,205,0.0,0.0,45,0.00,,,0.00,0,WeatherCatV1.11B39,2013-01-24 06:11:00,
2013-01-23 23:16:00,52.2,32.0,30.13,SSW,205,0.0,0.0,46,0.00,,,0.00,0,WeatherCatV1.11B39,2013-01-24 06:16:00,
2013-01-23 23:21:00,51.7,32.1,30.13,SSW,205,0.0,0.0,47,0.00,,,0.00,0,WeatherCatV1.11B39,2013-01-24 06:21:00,
2013-01-23 23:26:00,51.3,32.3,30.13,SSW,207,2.0,3.0,48,0.00,,,0.00,0,WeatherCatV1.11B39,2013-01-24 06:26:00,
2013-01-23 23:31:00,51.4,31.9,30.13,SSW,206,2.0,3.0,47,0.00,,,0.00,0,WeatherCatV1.11B39,2013-01-24 06:31:00,
2013-01-23 23:36:00,51.8,32.2,30.14,SSW,207,0.0,1.0,47,0.00,,,0.00,0,WeatherCatV1.11B39,2013-01-24 06:36:00,
2013-01-23 23:41:00,51.6,32.0,30.14,SSW,207,1.0,2.0,47,0.00,,,0.00,0,WeatherCatV1.11B39,2013-01-24 06:41:00,
2013-01-23 23:46:00,51.4,32.4,30.14,SSW,207,1.0,2.0,48,0.00,,,0.00,0,WeatherCatV1.11B39,2013-01-24 06:46:00,
2013-01-23 23:51:00,51.4,32.4,30.14,SSW,207,0.0,0.0,48,0.00,,,0.00,0,WeatherCatV1.11B39,2013-01-24 06:51:00,
2013-01-23 23:56:00,51.4,32.4,30.14,SSW,207,2.0,2.0,48,0.00,,,0.00,0,WeatherCatV1.11B39,2013-01-24 06:56:00,